Time;durP1;ratioP1;P1;durP2;ratioP2;P2;SDS_P1;SDS_P2;PMS_P1;PMS_P2;Temp;Humidity;BMP_temperature;BMP_pressure;BME280_temperature;BME280_humidity;BME280_pressure;Samples;Min_cycle;Max_cycle;Signal;HPM_P1;HPM_P2
2023/07/05 00:01:18;;;;;;;9.38;7.35;;;16.30;99.90;;;;;;5075067;28;20640;-75
2023/07/05 00:03:44;;;;;;;9.32;7.28;;;16.20;99.90;;;;;;5075242;28;20197;-75
2023/07/05 00:06:11;;;;;;;10.73;7.72;;;16.10;99.90;;;;;;5074937;28;20201;-75
2023/07/05 00:08:39;;;;;;;12.52;7.13;;;16.00;99.90;;;;;;5075094;28;20239;-75
2023/07/05 00:11:10;;;;;;;8.82;6.85;;;16.00;99.90;;;;;;5074876;28;20568;-75
2023/07/05 00:13:37;;;;;;;11.23;8.05;;;15.90;99.90;;;;;;5075259;28;20201;-75
2023/07/05 00:16:04;;;;;;;12.85;7.57;;;16.00;99.90;;;;;;5073952;28;20217;-75
2023/07/05 00:18:31;;;;;;;12.40;8.13;;;15.90;99.90;;;;;;5075067;28;20250;-75
2023/07/05 00:21:00;;;;;;;10.25;7.72;;;15.70;99.90;;;;;;5074825;28;20215;-75
2023/07/05 00:23:27;;;;;;;9.90;7.27;;;15.60;99.90;;;;;;5074813;28;20205;-75
2023/07/05 00:25:54;;;;;;;12.20;7.63;;;15.60;99.90;;;;;;5074708;28;20287;-74
2023/07/05 00:28:22;;;;;;;11.47;7.47;;;15.40;99.90;;;;;;5074869;28;20193;-75
2023/07/05 00:30:49;;;;;;;8.83;6.70;;;15.30;99.90;;;;;;5074634;28;20653;-75
2023/07/05 00:33:15;;;;;;;8.87;7.03;;;15.10;99.90;;;;;;5074461;28;20696;-75
2023/07/05 00:35:48;;;;;;;11.87;7.13;;;15.10;99.90;;;;;;5074479;28;20656;-76
2023/07/05 00:38:15;;;;;;;10.57;7.30;;;15.00;99.90;;;;;;5074405;28;20201;-75
2023/07/05 00:40:42;;;;;;;10.30;7.70;;;15.00;99.90;;;;;;5074693;28;20603;-75
2023/07/05 00:43:09;;;;;;;11.17;7.20;;;15.00;99.90;;;;;;5074519;28;20247;-75
2023/07/05 00:45:53;;;;;;;10.87;7.47;;;14.80;99.90;;;;;;5074245;28;20196;-76
2023/07/05 00:48:24;;;;;;;9.90;7.50;;;14.80;99.90;;;;;;5074227;28;20596;-75
2023/07/05 00:50:56;;;;;;;9.50;7.23;;;14.70;99.90;;;;;;5074115;28;20204;-75
2023/07/05 00:53:24;;;;;;;10.97;7.53;;;14.80;99.90;;;;;;5074368;28;20289;-75
2023/07/05 00:55:55;;;;;;;9.27;7.43;;;14.70;99.90;;;;;;5073724;28;20728;-75
2023/07/05 00:58:23;;;;;;;9.93;7.50;;;14.60;99.90;;;;;;5074122;28;20200;-75
2023/07/05 01:00:51;;;;;;;10.00;7.40;;;14.50;99.90;;;;;;5073918;28;20200;-75
2023/07/05 01:03:20;;;;;;;9.73;7.77;;;14.40;99.90;;;;;;5073851;28;20205;-75
2023/07/05 01:05:49;;;;;;;12.93;7.13;;;14.50;99.90;;;;;;5074227;28;20197;-75
2023/07/05 01:08:16;;;;;;;10.93;8.10;;;14.40;99.90;;;;;;5073479;28;20653;-75
2023/07/05 01:10:48;;;;;;;12.90;7.90;;;14.40;99.90;;;;;;5073845;28;20197;-75
2023/07/05 01:13:21;;;;;;;10.20;7.80;;;14.50;99.90;;;;;;5073585;28;20282;-75
2023/07/05 01:15:55;;;;;;;9.83;6.83;;;14.50;99.90;;;;;;5073605;28;20657;-75
2023/07/05 01:18:30;;;;;;;8.50;6.37;;;14.60;99.90;;;;;;5073610;28;20200;-75
2023/07/05 01:21:04;;;;;;;12.40;8.20;;;14.60;99.90;;;;;;5073680;28;20200;-75
2023/07/05 01:23:45;;;;;;;10.00;7.30;;;14.70;99.90;;;;;;5073640;28;20197;-75
2023/07/05 01:26:32;;;;;;;9.60;6.70;;;14.80;99.90;;;;;;5072973;28;20246;-75
2023/07/05 01:29:31;;;;;;;12.03;7.37;;;14.80;99.90;;;;;;5073506;28;20247;-75
2023/07/05 01:32:05;;;;;;;10.43;7.40;;;14.90;99.90;;;;;;5073017;28;20251;-75
2023/07/05 01:34:39;;;;;;;10.23;7.23;;;14.90;99.90;;;;;;5073156;28;20200;-75
2023/07/05 01:37:07;;;;;;;10.40;7.23;;;15.00;99.90;;;;;;5073253;28;20326;-76
2023/07/05 01:39:34;;;;;;;13.03;7.60;;;15.00;99.90;;;;;;5073118;28;20656;-75
2023/07/05 01:42:02;;;;;;;8.27;7.00;;;15.10;99.90;;;;;;5073274;28;20197;-75
2023/07/05 01:44:29;;;;;;;10.20;6.97;;;15.20;99.90;;;;;;5073100;28;20223;-76
2023/07/05 01:47:05;;;;;;;9.67;7.10;;;15.30;99.90;;;;;;5072907;28;20204;-75
2023/07/05 01:49:41;;;;;;;8.37;6.90;;;15.50;99.90;;;;;;5073237;28;20205;-75
2023/07/05 01:52:16;;;;;;;10.23;7.60;;;15.80;99.90;;;;;;5073107;28;20366;-75
2023/07/05 01:54:48;;;;;;;12.13;7.73;;;15.90;99.90;;;;;;5073132;28;20196;-75
2023/07/05 01:57:20;;;;;;;8.87;6.50;;;16.00;99.90;;;;;;5080498;28;20197;-76
2023/07/05 01:59:55;;;;;;;8.97;6.53;;;16.10;99.90;;;;;;5073152;28;20201;-75
2023/07/05 02:02:24;;;;;;;8.97;6.87;;;16.30;99.90;;;;;;5073143;28;20290;-75
2023/07/05 02:04:52;;;;;;;10.13;6.73;;;16.50;99.90;;;;;;5072717;28;20197;-75
2023/07/05 02:07:25;;;;;;;7.67;6.00;;;16.60;99.90;;;;;;5072885;28;20205;-76
2023/07/05 02:09:51;;;;;;;10.18;6.25;;;16.60;99.90;;;;;;5072717;28;20205;-75
2023/07/05 02:12:18;;;;;;;11.57;6.13;;;16.60;99.90;;;;;;5072602;28;20221;-75
2023/07/05 02:14:44;;;;;;;7.57;5.53;;;16.60;99.90;;;;;;5072883;28;20197;-75
2023/07/05 02:17:11;;;;;;;10.75;5.65;;;16.60;99.90;;;;;;5072737;28;20262;-75
2023/07/05 02:19:39;;;;;;;6.33;5.30;;;16.60;99.90;;;;;;5072797;28;20201;-75
2023/07/05 02:22:06;;;;;;;6.23;5.20;;;16.60;99.90;;;;;;5072544;28;20197;-75
2023/07/05 02:24:33;;;;;;;9.88;5.82;;;16.60;99.90;;;;;;5072512;28;20201;-75
2023/07/05 02:27:00;;;;;;;7.50;5.22;;;16.60;99.90;;;;;;5072722;28;20530;-74
2023/07/05 02:29:29;;;;;;;6.47;5.13;;;16.60;99.90;;;;;;5072658;28;20193;-75
2023/07/05 02:31:56;;;;;;;7.07;4.25;;;16.60;99.90;;;;;;5072324;28;20656;-75
2023/07/05 02:34:23;;;;;;;5.55;4.55;;;16.70;99.90;;;;;;5072524;28;20196;-75
2023/07/05 02:36:50;;;;;;;5.60;4.60;;;16.70;99.90;;;;;;5072458;28;20251;-75
2023/07/05 02:39:17;;;;;;;4.75;4.25;;;16.70;99.90;;;;;;5075240;28;20710;-75
2023/07/05 02:41:44;;;;;;;6.20;4.65;;;16.70;99.90;;;;;;5076745;28;20204;-75
2023/07/05 02:44:10;;;;;;;5.70;4.37;;;16.70;99.90;;;;;;5076730;28;20274;-75
2023/07/05 02:46:37;;;;;;;6.03;4.07;;;16.70;99.90;;;;;;5076452;28;20203;-75
2023/07/05 02:49:04;;;;;;;5.72;4.22;;;16.70;99.90;;;;;;5076545;28;20246;-74
2023/07/05 02:51:32;;;;;;;5.22;4.60;;;16.70;99.90;;;;;;5076403;28;20607;-74
2023/07/05 02:54:00;;;;;;;4.93;4.35;;;16.80;99.90;;;;;;5076143;28;20235;-74
2023/07/05 02:56:27;;;;;;;4.88;4.07;;;16.70;99.90;;;;;;5076229;28;20274;-74
2023/07/05 02:58:53;;;;;;;5.55;4.15;;;16.70;99.90;;;;;;5076365;28;20251;-76
2023/07/05 03:01:20;;;;;;;8.57;4.10;;;16.70;99.90;;;;;;5076258;28;20197;-76
2023/07/05 03:03:47;;;;;;;5.43;4.10;;;16.70;99.90;;;;;;5076225;28;20273;-75
2023/07/05 03:06:13;;;;;;;5.95;4.15;;;16.70;99.90;;;;;;5075912;28;20255;-75
2023/07/05 03:08:40;;;;;;;5.57;3.67;;;16.70;99.90;;;;;;5076392;28;20565;-75
2023/07/05 03:11:08;;;;;;;7.00;4.60;;;16.70;99.90;;;;;;5075927;28;20201;-75
2023/07/05 03:13:35;;;;;;;5.43;3.88;;;16.70;99.90;;;;;;5075985;28;20224;-75
2023/07/05 03:16:02;;;;;;;5.93;3.92;;;16.70;99.90;;;;;;5076091;28;20542;-76
2023/07/05 03:18:30;;;;;;;6.20;4.07;;;16.70;99.90;;;;;;5075939;28;20254;-75
2023/07/05 03:20:56;;;;;;;5.32;4.00;;;16.80;99.90;;;;;;5075909;28;20718;-75
2023/07/05 03:23:23;;;;;;;5.18;3.55;;;16.80;99.90;;;;;;5075881;28;20251;-75
2023/07/05 03:25:56;;;;;;;4.63;3.67;;;16.70;99.90;;;;;;5075897;28;20208;-74
2023/07/05 03:28:25;;;;;;;4.43;3.60;;;16.60;99.90;;;;;;5075553;28;20712;-76
2023/07/05 03:30:57;;;;;;;5.88;3.85;;;16.60;99.90;;;;;;5075695;28;20197;-75
2023/07/05 03:33:23;;;;;;;5.03;3.97;;;16.60;99.90;;;;;;5075169;28;20268;-76
2023/07/05 03:35:55;;;;;;;3.70;3.20;;;16.70;99.90;;;;;;5075542;28;20650;-75
2023/07/05 03:38:21;;;;;;;6.47;3.78;;;16.80;99.90;;;;;;5075417;28;20648;-74
2023/07/05 03:40:56;;;;;;;4.57;3.53;;;16.90;99.90;;;;;;5075405;28;20595;-74
2023/07/05 03:43:26;;;;;;;4.65;3.85;;;16.90;99.90;;;;;;5075426;28;20196;-75
2023/07/05 03:45:52;;;;;;;4.90;3.30;;;16.80;99.90;;;;;;5075325;28;20197;-75
2023/07/05 03:48:20;;;;;;;5.60;3.95;;;16.80;99.90;;;;;;5075600;28;20197;-75
2023/07/05 03:50:46;;;;;;;6.53;4.43;;;16.90;99.90;;;;;;5075268;28;20205;-75
2023/07/05 03:53:13;;;;;;;6.38;4.15;;;16.90;99.90;;;;;;5075138;28;20634;-75
2023/07/05 03:55:40;;;;;;;4.18;3.72;;;16.80;99.90;;;;;;5075007;28;20225;-77
2023/07/05 03:58:06;;;;;;;4.35;3.95;;;16.70;99.90;;;;;;5075217;28;20247;-76
2023/07/05 04:00:34;;;;;;;5.75;4.45;;;16.60;99.90;;;;;;5075337;28;20200;-76
2023/07/05 04:03:01;;;;;;;6.53;4.65;;;16.50;99.90;;;;;;5075067;28;20652;-77
2023/07/05 04:05:27;;;;;;;7.55;4.95;;;16.20;99.90;;;;;;5075146;28;20250;-78
2023/07/05 04:07:54;;;;;;;7.17;5.47;;;15.90;99.90;;;;;;5075033;28;20201;-79
2023/07/05 04:10:20;;;;;;;7.60;5.73;;;15.60;99.90;;;;;;5074985;28;20201;-80
2023/07/05 04:12:47;;;;;;;9.63;6.43;;;15.40;99.90;;;;;;5074897;28;20229;-81
2023/07/05 04:15:14;;;;;;;11.90;6.60;;;15.30;99.90;;;;;;5074795;28;20208;-81
2023/07/05 04:17:42;;;;;;;7.53;6.47;;;15.30;99.90;;;;;;5075000;28;20599;-80
2023/07/05 04:20:09;;;;;;;9.57;6.37;;;15.20;99.90;;;;;;5074892;28;20198;-79
2023/07/05 04:22:36;;;;;;;8.23;6.83;;;15.10;99.90;;;;;;5075027;28;20205;-79
2023/07/05 04:25:03;;;;;;;10.47;6.83;;;15.30;99.90;;;;;;5074934;28;20255;-79
2023/07/05 04:27:30;;;;;;;10.47;7.93;;;15.30;99.90;;;;;;5074424;28;20706;-79
2023/07/05 04:29:56;;;;;;;7.70;6.90;;;15.30;99.90;;;;;;5074680;28;20205;-78
2023/07/05 04:32:23;;;;;;;7.37;6.63;;;15.20;99.90;;;;;;5074781;28;20200;-79
2023/07/05 04:34:51;;;;;;;9.83;6.97;;;15.10;99.90;;;;;;5074693;28;20616;-78
2023/07/05 04:37:17;;;;;;;12.33;8.20;;;15.20;99.90;;;;;;5074268;28;20193;-78
2023/07/05 04:39:44;;;;;;;13.77;7.47;;;15.20;99.90;;;;;;5074437;28;20209;-77
2023/07/05 04:42:11;;;;;;;14.47;8.37;;;15.00;99.90;;;;;;5074240;28;20270;-78
2023/07/05 04:44:37;;;;;;;10.63;8.53;;;15.00;99.90;;;;;;5074272;28;20653;-78
2023/07/05 04:47:05;;;;;;;9.87;7.87;;;15.00;99.90;;;;;;5074527;28;20201;-77
2023/07/05 04:49:31;;;;;;;10.80;8.80;;;15.20;99.90;;;;;;5074427;28;20193;-78
2023/07/05 04:51:59;;;;;;;13.83;8.00;;;15.30;99.90;;;;;;5074517;28;20201;-78
2023/07/05 04:54:26;;;;;;;11.63;8.67;;;15.30;99.90;;;;;;5074242;28;20278;-78
2023/07/05 04:56:52;;;;;;;11.67;7.97;;;15.40;99.90;;;;;;5074040;28;20225;-78
2023/07/05 04:59:19;;;;;;;9.80;7.90;;;15.40;99.90;;;;;;5074304;28;20193;-79
2023/07/05 05:01:46;;;;;;;7.80;6.50;;;15.50;99.90;;;;;;5073556;28;20201;-78
2023/07/05 05:04:13;;;;;;;9.40;7.20;;;15.40;99.90;;;;;;5074263;28;20346;-79
2023/07/05 05:06:40;;;;;;;8.77;7.17;;;15.60;99.90;;;;;;5073796;28;20223;-78
2023/07/05 05:09:08;;;;;;;8.63;6.70;;;15.70;99.90;;;;;;5073743;28;20789;-79
2023/07/05 05:11:34;;;;;;;10.37;7.23;;;15.80;99.90;;;;;;5073722;28;20197;-79
2023/07/05 05:14:01;;;;;;;8.05;6.80;;;15.90;99.90;;;;;;5073911;28;20295;-79
2023/07/05 05:16:27;;;;;;;7.83;5.83;;;16.00;99.90;;;;;;5073680;28;20254;-80
2023/07/05 05:18:54;;;;;;;7.67;5.73;;;16.00;99.90;;;;;;5073804;28;20592;-80
2023/07/05 05:21:21;;;;;;;9.27;5.97;;;16.10;99.90;;;;;;5073715;28;20208;-81
2023/07/05 05:23:47;;;;;;;6.20;5.17;;;16.10;99.90;;;;;;5073474;28;20656;-81
2023/07/05 05:26:15;;;;;;;8.23;5.07;;;16.10;99.90;;;;;;5073775;28;20201;-80
2023/07/05 05:28:42;;;;;;;7.03;5.80;;;16.10;99.90;;;;;;5073532;28;20197;-80
2023/07/05 05:31:10;;;;;;;5.83;5.23;;;16.20;99.90;;;;;;5079215;28;20203;-81
2023/07/05 05:33:38;;;;;;;6.70;5.10;;;16.20;99.90;;;;;;5074801;28;20221;-82
2023/07/05 05:36:05;;;;;;;8.53;4.97;;;16.20;99.90;;;;;;5073737;28;20706;-82
2023/07/05 05:38:31;;;;;;;7.60;5.10;;;16.30;99.90;;;;;;5073398;28;20607;-82
2023/07/05 05:41:02;;;;;;;5.32;4.82;;;16.30;99.90;;;;;;5074850;28;20248;-82
2023/07/05 05:43:31;;;;;;;5.67;4.83;;;16.40;99.90;;;;;;5074178;28;20205;-82
2023/07/05 05:45:57;;;;;;;8.82;5.38;;;16.40;99.90;;;;;;5073190;28;20266;-82
2023/07/05 05:48:24;;;;;;;8.95;5.32;;;16.50;99.90;;;;;;5072914;28;20727;-82
2023/07/05 05:50:51;;;;;;;7.72;5.28;;;16.60;99.90;;;;;;5073004;28;20250;-80
2023/07/05 05:53:17;;;;;;;6.53;5.20;;;16.70;99.90;;;;;;5073165;28;20217;-80
2023/07/05 05:55:44;;;;;;;6.20;5.18;;;16.90;99.90;;;;;;5072903;28;20279;-81
2023/07/05 05:58:10;;;;;;;5.85;4.80;;;16.90;99.90;;;;;;5073337;28;20556;-80
2023/07/05 06:00:39;;;;;;;4.88;4.30;;;17.00;99.90;;;;;;5072973;28;20201;-80
2023/07/05 06:03:06;;;;;;;6.63;4.45;;;17.00;99.90;;;;;;5072756;28;20645;-77
2023/07/05 06:05:33;;;;;;;7.07;4.38;;;17.10;99.90;;;;;;5072741;28;20231;-79
2023/07/05 06:08:00;;;;;;;7.28;4.70;;;17.10;99.90;;;;;;5072633;28;20723;-77
2023/07/05 06:10:27;;;;;;;5.03;4.50;;;17.20;99.90;;;;;;5072811;28;20218;-78
2023/07/05 06:12:53;;;;;;;6.28;4.68;;;17.40;99.90;;;;;;5071752;28;20205;-78
2023/07/05 06:15:20;;;;;;;6.85;3.78;;;17.30;99.90;;;;;;5072810;28;20224;-79
2023/07/05 06:17:48;;;;;;;6.15;3.95;;;17.30;99.90;;;;;;5072700;28;20644;-79
2023/07/05 06:20:15;;;;;;;7.15;3.90;;;17.30;99.90;;;;;;5072954;28;20200;-79
2023/07/05 06:22:42;;;;;;;5.78;4.00;;;17.30;99.90;;;;;;5073016;28;20201;-79
2023/07/05 06:25:11;;;;;;;5.68;3.95;;;17.40;99.90;;;;;;5072955;28;20197;-80
2023/07/05 06:27:38;;;;;;;5.68;4.07;;;17.40;99.90;;;;;;5072828;28;20203;-79
2023/07/05 06:30:05;;;;;;;5.72;3.58;;;17.40;99.90;;;;;;5072386;28;20251;-79
2023/07/05 06:32:32;;;;;;;4.55;3.65;;;17.40;99.90;;;;;;5072410;28;20719;-79
2023/07/05 06:35:00;;;;;;;4.72;3.85;;;17.50;99.90;;;;;;5072926;28;20240;-79
2023/07/05 06:37:27;;;;;;;6.80;3.65;;;17.70;99.90;;;;;;5072730;28;20254;-79
2023/07/05 06:39:54;;;;;;;4.50;3.53;;;18.00;99.90;;;;;;5072613;28;20603;-79
2023/07/05 06:42:20;;;;;;;4.97;3.65;;;18.00;99.90;;;;;;5072353;28;20671;-78
2023/07/05 06:44:47;;;;;;;4.07;3.63;;;18.30;99.90;;;;;;5072187;28;20333;-78
2023/07/05 06:47:14;;;;;;;5.38;3.50;;;18.30;99.90;;;;;;5072264;28;20201;-80
2023/07/05 06:49:40;;;;;;;3.58;3.20;;;18.40;99.90;;;;;;5072782;28;20201;-78
2023/07/05 06:52:08;;;;;;;3.70;3.28;;;18.50;99.90;;;;;;5072367;28;20197;-79
2023/07/05 06:54:35;;;;;;;3.35;2.85;;;18.60;99.90;;;;;;5072352;28;20220;-78
2023/07/05 06:57:02;;;;;;;3.65;3.00;;;18.90;99.90;;;;;;5072216;28;20225;-78
2023/07/05 06:59:28;;;;;;;4.57;2.97;;;18.80;99.90;;;;;;5072362;28;20201;-79
2023/07/05 07:01:55;;;;;;;7.80;2.75;;;19.00;99.90;;;;;;5072256;28;20197;-77
2023/07/05 07:04:21;;;;;;;4.40;2.70;;;19.30;99.90;;;;;;5072457;28;20254;-77
2023/07/05 07:06:48;;;;;;;3.70;2.50;;;19.40;99.90;;;;;;5072675;28;20201;-75
2023/07/05 07:09:16;;;;;;;3.22;2.50;;;19.50;99.90;;;;;;5072832;28;20619;-77
2023/07/05 07:11:42;;;;;;;4.28;2.28;;;19.30;99.90;;;;;;5072485;28;20193;-77
2023/07/05 07:14:09;;;;;;;3.65;2.35;;;19.30;99.90;;;;;;5072091;28;20235;-74
2023/07/05 07:16:36;;;;;;;5.30;2.40;;;19.30;99.90;;;;;;5072514;28;20220;-76
2023/07/05 07:19:02;;;;;;;3.50;2.33;;;19.50;99.90;;;;;;5072320;28;20251;-76
2023/07/05 07:21:31;;;;;;;2.65;2.10;;;19.50;99.90;;;;;;5072228;28;20201;-76
2023/07/05 07:23:57;;;;;;;4.57;2.30;;;19.50;99.90;;;;;;5072278;28;20652;-80
2023/07/05 07:26:26;;;;;;;3.63;2.30;;;19.40;99.90;;;;;;5075802;28;20208;-75
2023/07/05 07:28:55;;;;;;;3.33;2.70;;;19.10;99.90;;;;;;5075789;28;20644;-77
2023/07/05 07:31:24;;;;;;;3.45;2.40;;;19.00;99.90;;;;;;5076082;28;20196;-79
2023/07/05 07:33:52;;;;;;;2.55;2.25;;;19.10;99.90;;;;;;5076229;28;20225;-79
2023/07/05 07:36:20;;;;;;;3.65;2.22;;;19.20;99.90;;;;;;5075760;28;20673;-79
2023/07/05 07:38:47;;;;;;;2.90;2.30;;;19.30;99.90;;;;;;5075698;28;20714;-80
2023/07/05 07:41:16;;;;;;;4.10;2.22;;;19.70;99.90;;;;;;5074849;28;20732;-77
2023/07/05 07:43:44;;;;;;;5.35;1.88;;;19.60;99.90;;;;;;5073759;28;20258;-75
2023/07/05 07:46:11;;;;;;;3.03;1.77;;;20.00;99.90;;;;;;5054893;28;20206;-77
2023/07/05 07:48:40;;;;;;;1.70;1.50;;;19.70;99.90;;;;;;5075295;28;20201;-76
2023/07/05 07:51:06;;;;;;;5.00;2.20;;;19.40;99.90;;;;;;5075364;28;20258;-76
2023/07/05 07:53:33;;;;;;;8.27;2.60;;;18.30;99.90;;;;;;5075071;28;20223;-77
2023/07/05 07:56:00;;;;;;;4.80;2.75;;;16.70;99.90;;;;;;5075056;28;20294;-79
2023/07/05 07:58:26;;;;;;;4.63;3.00;;;16.60;99.90;;;;;;5074995;28;20652;-77
2023/07/05 08:00:54;;;;;;;5.38;3.30;;;16.30;99.90;;;;;;5075325;28;20223;-77
2023/07/05 08:03:21;;;;;;;6.35;3.13;;;16.30;99.90;;;;;;5074775;28;20726;-77
2023/07/05 08:05:51;;;;;;;3.72;2.92;;;16.10;99.90;;;;;;5080184;28;20250;-81
2023/07/05 08:08:17;;;;;;;6.68;3.65;;;16.00;99.90;;;;;;5076200;28;20201;-84
2023/07/05 08:10:44;;;;;;;13.33;4.27;;;16.00;99.90;;;;;;5074339;28;20684;-73
2023/07/05 08:13:10;;;;;;;5.90;3.97;;;15.90;99.90;;;;;;5074731;28;20205;-79
2023/07/05 08:15:37;;;;;;;7.95;3.88;;;15.70;99.90;;;;;;5074313;28;20228;-74
2023/07/05 08:18:05;;;;;;;5.30;4.10;;;15.70;99.90;;;;;;5074482;28;20201;-74
2023/07/05 08:20:33;;;;;;;7.45;3.97;;;15.80;99.90;;;;;;5074320;28;20208;-74
2023/07/05 08:23:00;;;;;;;9.07;4.20;;;15.60;99.90;;;;;;5074980;28;20201;-75
2023/07/05 08:25:27;;;;;;;6.23;3.90;;;15.60;99.90;;;;;;5084884;28;20201;-79
2023/07/05 08:27:53;;;;;;;10.63;4.27;;;15.70;99.90;;;;;;5054472;28;20194;-79
2023/07/05 08:30:20;;;;;;;8.83;5.00;;;15.70;99.90;;;;;;5054311;28;20301;-73
2023/07/05 08:32:46;;;;;;;7.37;4.70;;;15.70;99.90;;;;;;5054478;28;20194;-73
2023/07/05 08:35:14;;;;;;;6.43;5.33;;;15.70;99.90;;;;;;5053870;28;20705;-79
2023/07/05 08:37:49;;;;;;;6.77;4.83;;;15.70;99.90;;;;;;5053664;28;20198;-80
2023/07/05 08:40:16;;;;;;;6.17;4.80;;;15.70;99.90;;;;;;5054445;28;20630;-81
2023/07/05 08:42:55;;;;;;;5.57;4.83;;;15.80;99.90;;;;;;5054473;28;20202;-79
2023/07/05 08:45:28;;;;;;;6.73;4.20;;;15.90;99.90;;;;;;5054283;28;20205;-79
2023/07/05 08:48:00;;;;;;;5.73;3.70;;;15.80;99.90;;;;;;5054193;28;20248;-79
2023/07/05 08:50:32;;;;;;;7.80;3.93;;;15.60;99.90;;;;;;5054494;28;20202;-81
2023/07/05 08:53:05;;;;;;;5.50;4.10;;;15.50;99.90;;;;;;5055379;28;20664;-82
2023/07/05 08:55:45;;;;;;;5.87;4.73;;;15.40;99.90;;;;;;5055694;28;20237;-83
2023/07/05 08:58:18;;;;;;;5.10;4.40;;;15.70;99.90;;;;;;5055287;28;20675;-84
2023/07/05 09:00:51;;;;;;;7.53;4.13;;;15.70;99.90;;;;;;5055350;28;20201;-85
2023/07/05 09:03:18;;;;;;;6.22;3.67;;;15.60;99.90;;;;;;5054419;28;20251;-80
2023/07/05 09:05:50;;;;;;;7.47;4.30;;;15.80;99.90;;;;;;5054319;28;20202;-81
2023/07/05 09:08:25;;;;;;;5.80;3.63;;;15.70;99.90;;;;;;5055602;28;20198;-85
2023/07/05 09:10:55;;;;;;;5.87;4.00;;;15.60;99.90;;;;;;5054826;28;20656;-82
2023/07/05 09:13:33;;;;;;;4.33;3.87;;;15.50;99.90;;;;;;5055141;28;20201;-83
2023/07/05 09:16:06;;;;;;;6.50;3.95;;;15.70;99.90;;;;;;5053945;28;20278;-81
2023/07/05 09:18:50;;;;;;;5.47;4.03;;;15.90;99.90;;;;;;5053832;28;20209;-79
2023/07/05 09:21:30;;;;;;;6.80;3.97;;;16.30;99.90;;;;;;5053687;28;20228;-79
2023/07/05 09:24:04;;;;;;;4.72;4.03;;;16.60;99.90;;;;;;5053854;28;20201;-78
2023/07/05 09:26:36;;;;;;;9.80;3.30;;;16.40;99.90;;;;;;5053727;28;20267;-77
2023/07/05 09:29:13;;;;;;;6.68;3.90;;;16.80;99.90;;;;;;5053577;28;20198;-78
2023/07/05 09:31:40;;;;;;;3.97;3.10;;;16.50;99.90;;;;;;5053395;28;20207;-78
2023/07/05 09:34:18;;;;;;;4.15;3.20;;;16.60;99.90;;;;;;5053413;28;20259;-77
2023/07/05 09:36:48;;;;;;;5.25;3.05;;;17.10;99.90;;;;;;5053527;28;20197;-76
2023/07/05 09:39:24;;;;;;;3.58;2.60;;;16.80;99.90;;;;;;5067439;28;20200;-76
2023/07/05 09:41:54;;;;;;;3.35;2.70;;;17.00;99.90;;;;;;5073049;28;20192;-75
2023/07/05 09:44:21;;;;;;;3.95;2.67;;;17.30;99.90;;;;;;5073705;28;20254;-76
2023/07/05 09:46:48;;;;;;;3.45;2.90;;;17.60;99.90;;;;;;5073439;28;20200;-79
2023/07/05 09:49:17;;;;;;;4.18;3.00;;;18.00;99.90;;;;;;5073184;28;20201;-78
2023/07/05 09:51:45;;;;;;;3.22;2.92;;;17.80;99.90;;;;;;5073336;28;20635;-78
2023/07/05 09:54:21;;;;;;;5.32;3.33;;;17.60;99.90;;;;;;5072967;28;20197;-76
2023/07/05 09:56:58;;;;;;;4.50;3.42;;;17.90;99.90;;;;;;5072735;28;20285;-77
2023/07/05 09:59:25;;;;;;;3.90;3.50;;;17.70;99.90;;;;;;5072880;28;20192;-78
2023/07/05 10:01:55;;;;;;;3.50;3.20;;;18.00;99.90;;;;;;5072926;28;20197;-80
2023/07/05 10:04:26;;;;;;;5.38;3.83;;;17.80;99.90;;;;;;5072867;28;20205;-76
2023/07/05 10:06:53;;;;;;;4.72;3.80;;;17.80;99.90;;;;;;5072740;28;20197;-77
2023/07/05 10:09:23;;;;;;;5.30;3.55;;;17.70;99.90;;;;;;5072628;28;20237;-76
2023/07/05 10:11:53;;;;;;;4.85;4.00;;;17.70;99.90;;;;;;5072822;28;20192;-74
2023/07/05 10:14:21;;;;;;;5.20;4.22;;;17.80;99.90;;;;;;5071743;28;20189;-75
2023/07/05 10:16:51;;;;;;;4.20;3.67;;;17.80;99.90;;;;;;5071991;28;20229;-76
2023/07/05 10:19:26;;;;;;;4.40;3.90;;;18.00;99.90;;;;;;5072706;28;20200;-75
2023/07/05 10:21:57;;;;;;;4.43;3.80;;;18.90;99.90;;;;;;5072953;28;20196;-75
2023/07/05 10:24:27;;;;;;;4.82;4.07;;;19.30;99.90;;;;;;5072708;28;20193;-75
2023/07/05 10:27:03;;;;;;;6.40;4.00;;;20.20;99.90;;;;;;5072676;28;20197;-75
2023/07/05 10:29:32;;;;;;;4.60;4.20;;;20.20;99.90;;;;;;5072449;28;20559;-73
2023/07/05 10:32:00;;;;;;;6.03;4.40;;;19.40;99.90;;;;;;5072451;28;20243;-74
2023/07/05 10:34:27;;;;;;;5.55;4.70;;;19.20;99.90;;;;;;5072375;28;20585;-73
2023/07/05 10:36:55;;;;;;;5.32;3.80;;;18.90;99.90;;;;;;5072595;28;20205;-74
2023/07/05 10:39:23;;;;;;;4.47;4.00;;;18.70;99.90;;;;;;5072426;28;20204;-73
2023/07/05 10:41:57;;;;;;;5.05;4.55;;;18.90;99.90;;;;;;5072540;28;20205;-73
2023/07/05 10:44:29;;;;;;;4.68;4.18;;;19.40;99.90;;;;;;5072026;28;20205;-76
2023/07/05 10:46:56;;;;;;;5.00;4.50;;;19.60;99.90;;;;;;5072576;28;20228;-74
2023/07/05 10:49:25;;;;;;;5.60;4.68;;;19.50;99.90;;;;;;5072349;28;20755;-74
2023/07/05 10:51:56;;;;;;;5.47;4.60;;;19.80;99.90;;;;;;5072506;28;20278;-75
2023/07/05 10:54:30;;;;;;;5.25;4.55;;;19.90;99.90;;;;;;5072480;28;20197;-74
2023/07/05 10:57:02;;;;;;;9.00;4.13;;;20.20;99.90;;;;;;5072351;28;20224;-74
2023/07/05 10:59:35;;;;;;;6.85;4.95;;;20.10;99.90;;;;;;5073958;28;20193;-72
2023/07/05 11:02:07;;;;;;;6.88;4.30;;;20.90;99.90;;;;;;5076223;28;20612;-72
2023/07/05 11:04:35;;;;;;;5.90;4.25;;;21.20;99.90;;;;;;5076228;28;20689;-71
2023/07/05 11:07:10;;;;;;;4.78;4.38;;;21.10;99.90;;;;;;5076135;28;20259;-72
2023/07/05 11:09:37;;;;;;;4.80;4.30;;;21.80;99.90;;;;;;5075862;28;20726;-73
2023/07/05 11:12:15;;;;;;;4.68;4.28;;;22.70;97.40;;;;;;5076162;28;20197;-73
2023/07/05 11:14:43;;;;;;;6.68;4.05;;;22.80;95.60;;;;;;5075986;28;20193;-73
2023/07/05 11:17:24;;;;;;;8.40;4.30;;;23.20;92.60;;;;;;5075968;28;20205;-74
2023/07/05 11:19:51;;;;;;;6.35;3.97;;;24.20;90.90;;;;;;5075802;28;20254;-73
2023/07/05 11:22:40;;;;;;;4.47;4.07;;;24.10;84.30;;;;;;5075911;28;20201;-73
2023/07/05 11:25:11;;;;;;;5.72;4.10;;;23.00;82.90;;;;;;5075656;28;20717;-74
2023/07/05 11:27:56;;;;;;;5.10;4.30;;;23.30;83.30;;;;;;5075753;28;20273;-74
2023/07/05 11:30:45;;;;;;;4.80;4.20;;;24.10;80.20;;;;;;5075664;28;20200;-75
2023/07/05 11:33:20;;;;;;;4.30;3.90;;;24.10;77.90;;;;;;5075728;28;20250;-74
2023/07/05 11:35:49;;;;;;;4.35;3.95;;;23.40;77.30;;;;;;5075062;28;20307;-74
2023/07/05 11:39:07;;;;;;;4.40;3.90;;;23.90;72.20;;;;;;5055121;28;20194;-72
2023/07/05 11:41:38;;;;;;;4.57;3.90;;;24.30;71.10;;;;;;5056279;28;20197;-74
2023/07/05 11:44:24;;;;;;;5.43;4.13;;;24.30;68.10;;;;;;5055222;28;20194;-75
2023/07/05 11:46:52;;;;;;;4.97;3.97;;;24.70;70.20;;;;;;5055464;28;20521;-75
2023/07/05 11:49:34;;;;;;;4.32;3.92;;;24.60;70.20;;;;;;5055253;28;20202;-75
2023/07/05 11:52:16;;;;;;;4.75;4.25;;;25.50;70.40;;;;;;5055290;28;20202;-74
2023/07/05 11:54:54;;;;;;;4.65;4.05;;;25.60;69.50;;;;;;5055301;28;20197;-74
2023/07/05 11:57:22;;;;;;;4.53;4.13;;;24.80;70.00;;;;;;5054972;28;20657;-74
2023/07/05 12:00:02;;;;;;;5.55;4.10;;;24.70;68.30;;;;;;5054808;28;20260;-73
2023/07/05 12:02:53;;;;;;;4.95;4.32;;;25.70;68.70;;;;;;5055101;28;20203;-74
2023/07/05 12:05:24;;;;;;;4.05;3.50;;;26.30;64.60;;;;;;5055087;28;20198;-74
2023/07/05 12:07:57;;;;;;;5.20;3.95;;;27.20;59.80;;;;;;5054823;28;20669;-74
2023/07/05 12:10:28;;;;;;;4.32;3.78;;;25.80;58.40;;;;;;5053950;28;20649;-74
2023/07/05 12:12:54;;;;;;;5.07;3.30;;;26.00;58.20;;;;;;5054625;28;20260;-74
2023/07/05 12:15:23;;;;;;;4.95;3.70;;;25.90;55.30;;;;;;5054751;28;20218;-74
2023/07/05 12:17:49;;;;;;;3.65;3.05;;;24.50;54.50;;;;;;5054790;28;20198;-72
2023/07/05 12:20:37;;;;;;;4.28;2.90;;;24.70;51.80;;;;;;5054532;28;20646;-72
2023/07/05 12:23:07;;;;;;;4.00;2.95;;;25.20;49.00;;;;;;5054837;28;20204;-72
2023/07/05 12:25:35;;;;;;;3.60;3.25;;;24.30;47.40;;;;;;5054589;28;20212;-72
2023/07/05 12:28:03;;;;;;;3.40;2.92;;;24.10;47.30;;;;;;5054483;28;20271;-71
2023/07/05 12:30:39;;;;;;;3.22;2.70;;;24.30;45.20;;;;;;5054459;28;20224;-72
2023/07/05 12:33:18;;;;;;;4.25;2.78;;;24.50;43.10;;;;;;5054368;28;20197;-72
2023/07/05 12:35:45;;;;;;;4.75;2.92;;;24.70;43.10;;;;;;5057480;28;20209;-73
2023/07/05 12:38:17;;;;;;;3.22;2.92;;;24.90;42.50;;;;;;5074413;28;20255;-72
2023/07/05 12:40:50;;;;;;;4.10;2.88;;;25.60;41.70;;;;;;5074289;28;20665;-79
2023/07/05 12:43:22;;;;;;;3.20;2.85;;;24.90;41.10;;;;;;5073335;28;20284;-85
2023/07/05 12:45:50;;;;;;;5.10;3.13;;;24.70;42.90;;;;;;5074464;28;20212;-74
2023/07/05 12:48:24;;;;;;;5.65;2.67;;;24.20;42.80;;;;;;5074317;28;20533;-74
2023/07/05 12:51:02;;;;;;;5.25;3.38;;;24.60;43.60;;;;;;5074076;28;20565;-74
2023/07/05 12:53:29;;;;;;;3.65;3.10;;;23.50;44.90;;;;;;5074024;28;20220;-74
2023/07/05 12:55:59;;;;;;;4.20;3.10;;;24.00;47.50;;;;;;5073469;28;20236;-74
2023/07/05 12:58:28;;;;;;;6.85;3.20;;;24.90;45.30;;;;;;5074151;28;20197;-74